Maple Creek, Canada
Current Conditions -  °F | °C
As of 7:00 AM on Monday 22 Dec 2014 (Local Time) from CYXH Reporting Station
Overcast Overcast  
Wind Chill: 24°   Ceiling: 11000
Heat Index: 32°   Visibility: 15mi
Dew Point: 30°   Wind: 9mph
Humidity: 93%   Direction: 270°W
Pressure: 29.74"   Gusts: NA
Location:  49.91°N, 109.48°W
Report Text: CYXH 221300Z 27008KT 15SM OVC110 00/M01 A2974 RMK AC8 SOG 5CM SLP095
Loading
Personal Weather Stations






























Interactive Weather Map New forecast layout! Learn more

10-Day Weather Forecast

Advertisements
Track Severe Weather on mobile